sensor_id;sensor_type;location;lat;lon;timestamp;P1;durP1;ratioP1;P2;durP2;ratioP2
28958;SDS011;16066;0.000;0.000;2023-03-14T00:01:43;11.20;;;7.37;;
28958;SDS011;16066;0.000;0.000;2023-03-14T00:04:09;11.80;;;7.30;;
28958;SDS011;16066;0.000;0.000;2023-03-14T00:06:35;11.90;;;7.80;;
28958;SDS011;16066;0.000;0.000;2023-03-14T00:09:01;13.07;;;8.50;;
28958;SDS011;16066;0.000;0.000;2023-03-14T00:11:26;11.47;;;7.33;;
28958;SDS011;16066;0.000;0.000;2023-03-14T00:13:52;7.90;;;6.20;;
28958;SDS011;16066;0.000;0.000;2023-03-14T00:16:18;10.70;;;6.90;;
28958;SDS011;16066;0.000;0.000;2023-03-14T00:18:44;9.77;;;6.80;;
28958;SDS011;16066;0.000;0.000;2023-03-14T00:21:10;11.93;;;6.23;;
28958;SDS011;16066;0.000;0.000;2023-03-14T00:23:37;9.23;;;6.37;;
28958;SDS011;16066;0.000;0.000;2023-03-14T00:26:05;8.57;;;6.40;;
28958;SDS011;16066;0.000;0.000;2023-03-14T00:28:35;7.90;;;5.70;;
28958;SDS011;16066;0.000;0.000;2023-03-14T00:31:04;7.83;;;5.90;;
28958;SDS011;16066;0.000;0.000;2023-03-14T00:33:31;9.47;;;6.00;;
28958;SDS011;16066;0.000;0.000;2023-03-14T00:35:58;9.17;;;6.23;;
28958;SDS011;16066;0.000;0.000;2023-03-14T00:38:29;9.60;;;5.60;;
28958;SDS011;16066;0.000;0.000;2023-03-14T00:40:56;7.80;;;5.17;;
28958;SDS011;16066;0.000;0.000;2023-03-14T00:43:22;6.90;;;5.27;;
28958;SDS011;16066;0.000;0.000;2023-03-14T00:45:49;8.07;;;4.80;;
28958;SDS011;16066;0.000;0.000;2023-03-14T00:48:16;8.30;;;5.40;;
28958;SDS011;16066;0.000;0.000;2023-03-14T00:50:43;7.17;;;4.60;;
28958;SDS011;16066;0.000;0.000;2023-03-14T00:53:08;7.73;;;5.33;;
28958;SDS011;16066;0.000;0.000;2023-03-14T00:55:40;12.07;;;6.10;;
28958;SDS011;16066;0.000;0.000;2023-03-14T00:58:07;12.80;;;7.00;;
28958;SDS011;16066;0.000;0.000;2023-03-14T01:00:33;13.43;;;8.77;;
28958;SDS011;16066;0.000;0.000;2023-03-14T01:03:00;17.00;;;10.13;;
28958;SDS011;16066;0.000;0.000;2023-03-14T01:05:26;15.43;;;10.47;;
28958;SDS011;16066;0.000;0.000;2023-03-14T01:07:52;17.60;;;10.83;;
28958;SDS011;16066;0.000;0.000;2023-03-14T01:10:18;15.93;;;11.23;;
28958;SDS011;16066;0.000;0.000;2023-03-14T01:12:44;16.23;;;10.90;;
28958;SDS011;16066;0.000;0.000;2023-03-14T01:15:09;16.13;;;10.90;;
28958;SDS011;16066;0.000;0.000;2023-03-14T01:17:35;17.30;;;11.80;;
28958;SDS011;16066;0.000;0.000;2023-03-14T01:20:03;17.30;;;11.60;;
28958;SDS011;16066;0.000;0.000;2023-03-14T01:22:29;13.37;;;10.80;;
28958;SDS011;16066;0.000;0.000;2023-03-14T01:24:55;16.60;;;11.20;;
28958;SDS011;16066;0.000;0.000;2023-03-14T01:27:20;13.00;;;10.27;;
28958;SDS011;16066;0.000;0.000;2023-03-14T01:29:46;17.43;;;10.80;;
28958;SDS011;16066;0.000;0.000;2023-03-14T01:32:12;13.63;;;9.90;;
28958;SDS011;16066;0.000;0.000;2023-03-14T01:34:38;17.03;;;11.50;;
28958;SDS011;16066;0.000;0.000;2023-03-14T01:37:03;15.10;;;10.23;;
28958;SDS011;16066;0.000;0.000;2023-03-14T01:39:29;12.97;;;10.40;;
28958;SDS011;16066;0.000;0.000;2023-03-14T01:41:54;14.23;;;9.03;;
28958;SDS011;16066;0.000;0.000;2023-03-14T01:44:20;15.20;;;10.23;;
28958;SDS011;16066;0.000;0.000;2023-03-14T01:46:45;14.43;;;10.07;;
28958;SDS011;16066;0.000;0.000;2023-03-14T01:52:06;12.77;;;8.63;;
28958;SDS011;16066;0.000;0.000;2023-03-14T01:59:43;14.37;;;9.90;;
28958;SDS011;16066;0.000;0.000;2023-03-14T02:02:29;12.67;;;8.70;;
28958;SDS011;16066;0.000;0.000;2023-03-14T02:04:55;11.80;;;8.60;;
28958;SDS011;16066;0.000;0.000;2023-03-14T02:07:22;15.27;;;8.60;;
28958;SDS011;16066;0.000;0.000;2023-03-14T02:09:59;11.27;;;7.70;;
28958;SDS011;16066;0.000;0.000;2023-03-14T02:12:28;11.23;;;7.57;;
28958;SDS011;16066;0.000;0.000;2023-03-14T02:14:53;10.53;;;7.50;;
28958;SDS011;16066;0.000;0.000;2023-03-14T02:17:19;11.03;;;6.93;;
28958;SDS011;16066;0.000;0.000;2023-03-14T02:19:59;12.10;;;6.87;;
28958;SDS011;16066;0.000;0.000;2023-03-14T02:22:50;10.37;;;6.03;;
28958;SDS011;16066;0.000;0.000;2023-03-14T02:25:23;13.03;;;7.20;;
28958;SDS011;16066;0.000;0.000;2023-03-14T02:28:01;9.13;;;6.57;;
28958;SDS011;16066;0.000;0.000;2023-03-14T02:30:28;9.90;;;6.77;;
28958;SDS011;16066;0.000;0.000;2023-03-14T02:32:57;10.57;;;6.80;;
28958;SDS011;16066;0.000;0.000;2023-03-14T02:35:29;10.43;;;6.33;;
28958;SDS011;16066;0.000;0.000;2023-03-14T02:38:08;8.20;;;6.20;;
28958;SDS011;16066;0.000;0.000;2023-03-14T02:40:47;8.50;;;5.23;;
28958;SDS011;16066;0.000;0.000;2023-03-14T02:43:13;9.63;;;6.00;;
28958;SDS011;16066;0.000;0.000;2023-03-14T02:45:48;9.57;;;5.77;;
28958;SDS011;16066;0.000;0.000;2023-03-14T02:48:16;10.30;;;5.77;;
28958;SDS011;16066;0.000;0.000;2023-03-14T02:50:49;9.30;;;5.67;;
28958;SDS011;16066;0.000;0.000;2023-03-14T02:53:19;10.10;;;5.90;;
28958;SDS011;16066;0.000;0.000;2023-03-14T02:55:48;7.80;;;5.53;;
28958;SDS011;16066;0.000;0.000;2023-03-14T02:58:14;8.50;;;5.60;;
28958;SDS011;16066;0.000;0.000;2023-03-14T03:00:40;6.53;;;5.03;;
28958;SDS011;16066;0.000;0.000;2023-03-14T03:03:06;6.50;;;5.60;;
28958;SDS011;16066;0.000;0.000;2023-03-14T03:05:32;5.77;;;4.93;;
28958;SDS011;16066;0.000;0.000;2023-03-14T03:07:57;8.50;;;4.97;;
28958;SDS011;16066;0.000;0.000;2023-03-14T03:10:23;9.10;;;5.23;;
28958;SDS011;16066;0.000;0.000;2023-03-14T03:12:49;6.80;;;5.00;;
28958;SDS011;16066;0.000;0.000;2023-03-14T03:15:15;7.67;;;5.10;;
28958;SDS011;16066;0.000;0.000;2023-03-14T03:17:40;7.73;;;4.67;;
28958;SDS011;16066;0.000;0.000;2023-03-14T03:20:06;6.33;;;4.50;;
28958;SDS011;16066;0.000;0.000;2023-03-14T03:22:34;6.70;;;4.70;;
28958;SDS011;16066;0.000;0.000;2023-03-14T03:25:00;6.20;;;4.40;;
28958;SDS011;16066;0.000;0.000;2023-03-14T03:27:26;7.43;;;5.37;;
28958;SDS011;16066;0.000;0.000;2023-03-14T03:29:54;4.27;;;3.33;;
28958;SDS011;16066;0.000;0.000;2023-03-14T03:32:19;9.13;;;4.87;;
28958;SDS011;16066;0.000;0.000;2023-03-14T03:34:45;5.97;;;4.30;;
28958;SDS011;16066;0.000;0.000;2023-03-14T03:37:10;8.77;;;4.57;;
28958;SDS011;16066;0.000;0.000;2023-03-14T03:39:35;5.93;;;3.90;;
28958;SDS011;16066;0.000;0.000;2023-03-14T03:42:01;7.57;;;4.63;;
28958;SDS011;16066;0.000;0.000;2023-03-14T03:44:26;4.80;;;3.60;;
28958;SDS011;16066;0.000;0.000;2023-03-14T03:46:52;5.50;;;3.67;;
28958;SDS011;16066;0.000;0.000;2023-03-14T03:49:18;5.10;;;3.33;;
28958;SDS011;16066;0.000;0.000;2023-03-14T03:51:43;5.33;;;3.70;;
28958;SDS011;16066;0.000;0.000;2023-03-14T03:54:08;6.67;;;3.80;;
28958;SDS011;16066;0.000;0.000;2023-03-14T03:56:34;6.43;;;3.97;;
28958;SDS011;16066;0.000;0.000;2023-03-14T03:59:00;5.23;;;3.67;;
28958;SDS011;16066;0.000;0.000;2023-03-14T04:01:25;3.90;;;3.27;;
28958;SDS011;16066;0.000;0.000;2023-03-14T04:03:51;5.00;;;3.43;;
28958;SDS011;16066;0.000;0.000;2023-03-14T04:06:16;6.07;;;3.80;;
28958;SDS011;16066;0.000;0.000;2023-03-14T04:08:42;4.37;;;3.30;;
28958;SDS011;16066;0.000;0.000;2023-03-14T04:11:08;4.93;;;3.43;;
28958;SDS011;16066;0.000;0.000;2023-03-14T04:13:34;4.20;;;3.00;;
28958;SDS011;16066;0.000;0.000;2023-03-14T04:15:59;6.90;;;3.40;;
28958;SDS011;16066;0.000;0.000;2023-03-14T04:18:25;4.20;;;3.17;;
28958;SDS011;16066;0.000;0.000;2023-03-14T04:20:51;5.97;;;3.30;;
28958;SDS011;16066;0.000;0.000;2023-03-14T04:23:18;4.00;;;3.43;;
28958;SDS011;16066;0.000;0.000;2023-03-14T04:25:43;4.07;;;3.27;;
28958;SDS011;16066;0.000;0.000;2023-03-14T04:28:09;5.03;;;3.50;;
28958;SDS011;16066;0.000;0.000;2023-03-14T04:30:34;3.23;;;2.80;;
28958;SDS011;16066;0.000;0.000;2023-03-14T04:33:00;5.30;;;3.20;;
28958;SDS011;16066;0.000;0.000;2023-03-14T04:35:25;4.37;;;3.00;;
28958;SDS011;16066;0.000;0.000;2023-03-14T04:37:51;4.80;;;3.33;;
28958;SDS011;16066;0.000;0.000;2023-03-14T04:40:17;5.40;;;3.77;;
28958;SDS011;16066;0.000;0.000;2023-03-14T04:42:43;3.60;;;3.03;;
28958;SDS011;16066;0.000;0.000;2023-03-14T04:45:09;5.53;;;3.40;;
28958;SDS011;16066;0.000;0.000;2023-03-14T04:47:34;3.70;;;2.67;;
28958;SDS011;16066;0.000;0.000;2023-03-14T04:50:00;4.80;;;3.33;;
28958;SDS011;16066;0.000;0.000;2023-03-14T04:52:26;4.20;;;3.03;;
28958;SDS011;16066;0.000;0.000;2023-03-14T04:54:52;4.23;;;3.03;;
28958;SDS011;16066;0.000;0.000;2023-03-14T04:57:18;4.83;;;2.90;;
28958;SDS011;16066;0.000;0.000;2023-03-14T04:59:43;4.13;;;3.00;;
28958;SDS011;16066;0.000;0.000;2023-03-14T05:02:09;3.53;;;2.60;;
28958;SDS011;16066;0.000;0.000;2023-03-14T05:04:34;6.37;;;3.83;;
28958;SDS011;16066;0.000;0.000;2023-03-14T05:07:00;4.73;;;2.80;;
28958;SDS011;16066;0.000;0.000;2023-03-14T05:09:25;4.33;;;2.60;;
28958;SDS011;16066;0.000;0.000;2023-03-14T05:11:51;3.73;;;2.67;;
28958;SDS011;16066;0.000;0.000;2023-03-14T05:14:16;4.33;;;2.80;;
28958;SDS011;16066;0.000;0.000;2023-03-14T05:16:42;4.27;;;2.97;;
28958;SDS011;16066;0.000;0.000;2023-03-14T05:19:08;5.10;;;2.50;;
28958;SDS011;16066;0.000;0.000;2023-03-14T05:21:33;3.43;;;2.57;;
28958;SDS011;16066;0.000;0.000;2023-03-14T05:23:59;3.70;;;2.97;;
28958;SDS011;16066;0.000;0.000;2023-03-14T05:26:24;5.70;;;2.90;;
28958;SDS011;16066;0.000;0.000;2023-03-14T05:28:50;4.13;;;2.90;;
28958;SDS011;16066;0.000;0.000;2023-03-14T05:31:15;4.43;;;2.67;;
28958;SDS011;16066;0.000;0.000;2023-03-14T05:33:41;3.80;;;2.87;;
28958;SDS011;16066;0.000;0.000;2023-03-14T05:36:07;3.97;;;2.43;;
28958;SDS011;16066;0.000;0.000;2023-03-14T05:38:33;4.93;;;2.83;;
28958;SDS011;16066;0.000;0.000;2023-03-14T05:40:58;3.23;;;2.50;;
28958;SDS011;16066;0.000;0.000;2023-03-14T05:43:24;3.77;;;2.70;;
28958;SDS011;16066;0.000;0.000;2023-03-14T05:45:49;3.87;;;3.03;;
28958;SDS011;16066;0.000;0.000;2023-03-14T05:48:15;3.80;;;2.57;;
28958;SDS011;16066;0.000;0.000;2023-03-14T05:50:41;3.93;;;2.93;;
28958;SDS011;16066;0.000;0.000;2023-03-14T05:53:07;4.10;;;2.70;;
28958;SDS011;16066;0.000;0.000;2023-03-14T05:55:32;4.00;;;2.37;;
28958;SDS011;16066;0.000;0.000;2023-03-14T05:57:58;3.70;;;2.57;;
28958;SDS011;16066;0.000;0.000;2023-03-14T06:00:23;2.70;;;2.13;;
28958;SDS011;16066;0.000;0.000;2023-03-14T06:02:49;3.63;;;2.50;;
28958;SDS011;16066;0.000;0.000;2023-03-14T06:05:14;3.60;;;2.37;;
28958;SDS011;16066;0.000;0.000;2023-03-14T06:07:40;3.30;;;2.20;;
28958;SDS011;16066;0.000;0.000;2023-03-14T06:10:06;2.67;;;2.27;;
28958;SDS011;16066;0.000;0.000;2023-03-14T06:12:32;4.30;;;2.33;;
28958;SDS011;16066;0.000;0.000;2023-03-14T06:14:58;3.70;;;2.30;;
28958;SDS011;16066;0.000;0.000;2023-03-14T06:17:23;3.43;;;2.60;;
28958;SDS011;16066;0.000;0.000;2023-03-14T06:19:48;7.43;;;2.07;;
28958;SDS011;16066;0.000;0.000;2023-03-14T06:22:14;3.40;;;2.27;;
28958;SDS011;16066;0.000;0.000;2023-03-14T06:24:39;3.10;;;2.40;;
28958;SDS011;16066;0.000;0.000;2023-03-14T06:27:05;2.43;;;2.20;;
28958;SDS011;16066;0.000;0.000;2023-03-14T06:29:31;3.10;;;2.23;;
28958;SDS011;16066;0.000;0.000;2023-03-14T06:31:56;3.17;;;2.00;;
28958;SDS011;16066;0.000;0.000;2023-03-14T06:34:22;3.60;;;3.00;;
28958;SDS011;16066;0.000;0.000;2023-03-14T06:36:48;4.20;;;2.67;;
28958;SDS011;16066;0.000;0.000;2023-03-14T06:39:13;3.40;;;2.37;;
28958;SDS011;16066;0.000;0.000;2023-03-14T06:41:39;6.70;;;2.27;;
28958;SDS011;16066;0.000;0.000;2023-03-14T06:44:05;5.40;;;2.70;;
28958;SDS011;16066;0.000;0.000;2023-03-14T06:46:30;3.30;;;2.60;;
28958;SDS011;16066;0.000;0.000;2023-03-14T06:48:56;8.00;;;2.40;;
28958;SDS011;16066;0.000;0.000;2023-03-14T06:51:21;5.33;;;2.47;;
28958;SDS011;16066;0.000;0.000;2023-03-14T06:53:47;8.83;;;2.50;;
28958;SDS011;16066;0.000;0.000;2023-03-14T06:56:13;15.40;;;3.27;;
28958;SDS011;16066;0.000;0.000;2023-03-14T06:58:38;11.30;;;3.20;;
28958;SDS011;16066;0.000;0.000;2023-03-14T07:01:04;4.50;;;2.53;;
28958;SDS011;16066;0.000;0.000;2023-03-14T07:03:29;11.77;;;2.80;;
28958;SDS011;16066;0.000;0.000;2023-03-14T07:05:55;4.67;;;2.60;;
28958;SDS011;16066;0.000;0.000;2023-03-14T07:08:21;10.23;;;2.53;;
28958;SDS011;16066;0.000;0.000;2023-03-14T07:10:47;4.60;;;2.63;;
28958;SDS011;16066;0.000;0.000;2023-03-14T07:13:12;3.97;;;2.10;;
28958;SDS011;16066;0.000;0.000;2023-03-14T07:15:38;4.30;;;2.40;;
28958;SDS011;16066;0.000;0.000;2023-03-14T07:18:03;5.10;;;2.47;;
28958;SDS011;16066;0.000;0.000;2023-03-14T07:20:29;4.07;;;2.10;;
28958;SDS011;16066;0.000;0.000;2023-03-14T07:22:57;3.90;;;2.70;;
28958;SDS011;16066;0.000;0.000;2023-03-14T07:25:24;9.17;;;2.50;;
28958;SDS011;16066;0.000;0.000;2023-03-14T07:27:50;5.90;;;2.43;;
28958;SDS011;16066;0.000;0.000;2023-03-14T07:30:16;6.73;;;2.27;;
28958;SDS011;16066;0.000;0.000;2023-03-14T07:32:41;3.70;;;2.40;;
28958;SDS011;16066;0.000;0.000;2023-03-14T07:35:07;5.37;;;2.13;;
28958;SDS011;16066;0.000;0.000;2023-03-14T07:37:33;6.20;;;2.53;;
28958;SDS011;16066;0.000;0.000;2023-03-14T07:39:58;5.50;;;2.33;;
28958;SDS011;16066;0.000;0.000;2023-03-14T07:42:24;4.13;;;2.23;;
28958;SDS011;16066;0.000;0.000;2023-03-14T07:44:49;6.00;;;2.60;;
28958;SDS011;16066;0.000;0.000;2023-03-14T07:47:15;9.57;;;2.47;;
28958;SDS011;16066;0.000;0.000;2023-03-14T07:49:40;5.63;;;2.10;;
28958;SDS011;16066;0.000;0.000;2023-03-14T07:52:06;5.23;;;2.10;;
28958;SDS011;16066;0.000;0.000;2023-03-14T07:54:31;3.73;;;2.17;;
28958;SDS011;16066;0.000;0.000;2023-03-14T07:56:57;5.63;;;2.30;;
28958;SDS011;16066;0.000;0.000;2023-03-14T07:59:25;3.23;;;2.10;;
28958;SDS011;16066;0.000;0.000;2023-03-14T08:01:51;4.50;;;2.00;;
28958;SDS011;16066;0.000;0.000;2023-03-14T08:04:16;5.90;;;2.00;;
28958;SDS011;16066;0.000;0.000;2023-03-14T08:06:42;6.67;;;2.10;;
28958;SDS011;16066;0.000;0.000;2023-03-14T08:09:07;7.90;;;1.90;;
28958;SDS011;16066;0.000;0.000;2023-03-14T08:11:33;7.87;;;2.20;;
28958;SDS011;16066;0.000;0.000;2023-03-14T08:13:59;5.80;;;3.23;;
28958;SDS011;16066;0.000;0.000;2023-03-14T08:16:25;3.43;;;2.10;;
28958;SDS011;16066;0.000;0.000;2023-03-14T08:18:50;5.50;;;2.57;;
28958;SDS011;16066;0.000;0.000;2023-03-14T08:21:16;4.10;;;1.87;;
28958;SDS011;16066;0.000;0.000;2023-03-14T08:23:41;3.40;;;2.23;;
28958;SDS011;16066;0.000;0.000;2023-03-14T08:26:07;3.73;;;1.70;;
28958;SDS011;16066;0.000;0.000;2023-03-14T08:28:32;3.70;;;1.93;;
28958;SDS011;16066;0.000;0.000;2023-03-14T08:30:58;2.40;;;1.80;;
28958;SDS011;16066;0.000;0.000;2023-03-14T08:33:25;5.00;;;2.50;;
28958;SDS011;16066;0.000;0.000;2023-03-14T08:35:55;4.37;;;1.80;;
28958;SDS011;16066;0.000;0.000;2023-03-14T08:38:21;2.87;;;1.80;;
28958;SDS011;16066;0.000;0.000;2023-03-14T08:40:47;3.57;;;2.07;;
28958;SDS011;16066;0.000;0.000;2023-03-14T08:43:14;6.50;;;2.03;;
28958;SDS011;16066;0.000;0.000;2023-03-14T08:45:39;2.17;;;1.33;;
28958;SDS011;16066;0.000;0.000;2023-03-14T08:48:05;5.20;;;2.27;;
28958;SDS011;16066;0.000;0.000;2023-03-14T08:50:30;2.67;;;1.80;;
28958;SDS011;16066;0.000;0.000;2023-03-14T08:52:56;6.73;;;1.53;;
28958;SDS011;16066;0.000;0.000;2023-03-14T08:55:24;4.97;;;1.93;;
28958;SDS011;16066;0.000;0.000;2023-03-14T08:57:52;3.77;;;2.13;;
28958;SDS011;16066;0.000;0.000;2023-03-14T09:00:18;2.53;;;1.77;;
28958;SDS011;16066;0.000;0.000;2023-03-14T09:02:43;4.13;;;2.10;;
28958;SDS011;16066;0.000;0.000;2023-03-14T09:05:09;4.17;;;1.90;;
28958;SDS011;16066;0.000;0.000;2023-03-14T09:07:35;3.10;;;1.73;;
28958;SDS011;16066;0.000;0.000;2023-03-14T09:10:01;3.53;;;1.80;;
28958;SDS011;16066;0.000;0.000;2023-03-14T09:12:27;8.10;;;1.87;;
28958;SDS011;16066;0.000;0.000;2023-03-14T09:14:53;2.17;;;1.90;;
28958;SDS011;16066;0.000;0.000;2023-03-14T09:17:19;2.60;;;1.40;;
28958;SDS011;16066;0.000;0.000;2023-03-14T09:19:44;2.33;;;1.97;;
28958;SDS011;16066;0.000;0.000;2023-03-14T09:22:10;1.93;;;1.73;;
28958;SDS011;16066;0.000;0.000;2023-03-14T09:24:35;3.30;;;1.60;;
28958;SDS011;16066;0.000;0.000;2023-03-14T09:27:01;1.90;;;1.60;;
28958;SDS011;16066;0.000;0.000;2023-03-14T09:29:26;5.43;;;1.70;;
28958;SDS011;16066;0.000;0.000;2023-03-14T09:31:52;6.60;;;3.00;;
28958;SDS011;16066;0.000;0.000;2023-03-14T09:34:18;3.90;;;1.83;;
28958;SDS011;16066;0.000;0.000;2023-03-14T09:36:44;2.00;;;1.33;;
28958;SDS011;16066;0.000;0.000;2023-03-14T09:39:10;2.57;;;1.40;;
28958;SDS011;16066;0.000;0.000;2023-03-14T09:41:37;3.33;;;1.83;;
28958;SDS011;16066;0.000;0.000;2023-03-14T09:44:27;2.53;;;1.67;;
28958;SDS011;16066;0.000;0.000;2023-03-14T09:46:55;2.53;;;1.70;;
28958;SDS011;16066;0.000;0.000;2023-03-14T09:49:29;1.77;;;1.40;;
28958;SDS011;16066;0.000;0.000;2023-03-14T09:51:58;2.20;;;1.60;;
28958;SDS011;16066;0.000;0.000;2023-03-14T09:57:00;4.23;;;1.67;;
28958;SDS011;16066;0.000;0.000;2023-03-14T09:59:27;5.43;;;1.57;;
28958;SDS011;16066;0.000;0.000;2023-03-14T10:01:55;2.17;;;1.40;;
28958;SDS011;16066;0.000;0.000;2023-03-14T10:04:23;4.67;;;1.53;;
28958;SDS011;16066;0.000;0.000;2023-03-14T10:06:49;2.50;;;1.47;;
28958;SDS011;16066;0.000;0.000;2023-03-14T10:09:19;1.80;;;1.50;;
28958;SDS011;16066;0.000;0.000;2023-03-14T10:11:55;1.70;;;1.37;;
28958;SDS011;16066;0.000;0.000;2023-03-14T10:14:29;2.30;;;1.90;;
28958;SDS011;16066;0.000;0.000;2023-03-14T10:17:04;1.30;;;1.20;;
28958;SDS011;16066;0.000;0.000;2023-03-14T10:19:31;1.87;;;1.60;;
28958;SDS011;16066;0.000;0.000;2023-03-14T10:21:57;1.60;;;1.40;;
28958;SDS011;16066;0.000;0.000;2023-03-14T10:24:27;1.53;;;1.40;;
28958;SDS011;16066;0.000;0.000;2023-03-14T10:26:55;2.17;;;1.80;;
28958;SDS011;16066;0.000;0.000;2023-03-14T10:29:26;5.27;;;1.30;;
28958;SDS011;16066;0.000;0.000;2023-03-14T10:32:02;3.03;;;1.60;;
28958;SDS011;16066;0.000;0.000;2023-03-14T10:34:33;1.47;;;1.37;;
28958;SDS011;16066;0.000;0.000;2023-03-14T10:37:05;2.00;;;1.40;;
28958;SDS011;16066;0.000;0.000;2023-03-14T10:39:41;1.63;;;1.23;;
28958;SDS011;16066;0.000;0.000;2023-03-14T10:42:16;1.43;;;1.33;;
28958;SDS011;16066;0.000;0.000;2023-03-14T10:44:53;1.50;;;1.30;;
28958;SDS011;16066;0.000;0.000;2023-03-14T10:47:25;1.77;;;1.40;;
28958;SDS011;16066;0.000;0.000;2023-03-14T10:49:53;1.43;;;1.20;;
28958;SDS011;16066;0.000;0.000;2023-03-14T10:52:29;2.70;;;2.13;;
28958;SDS011;16066;0.000;0.000;2023-03-14T10:54:57;3.17;;;1.77;;
28958;SDS011;16066;0.000;0.000;2023-03-14T10:57:25;1.60;;;1.50;;
28958;SDS011;16066;0.000;0.000;2023-03-14T10:59:51;1.50;;;1.23;;
28958;SDS011;16066;0.000;0.000;2023-03-14T11:08:11;2.03;;;1.60;;
28958;SDS011;16066;0.000;0.000;2023-03-14T11:10:44;1.80;;;1.17;;
28958;SDS011;16066;0.000;0.000;2023-03-14T11:13:26;2.23;;;1.43;;
28958;SDS011;16066;0.000;0.000;2023-03-14T11:29:40;2.00;;;1.70;;
28958;SDS011;16066;0.000;0.000;2023-03-14T11:32:13;1.70;;;1.50;;
28958;SDS011;16066;0.000;0.000;2023-03-14T11:34:49;1.60;;;1.50;;
28958;SDS011;16066;0.000;0.000;2023-03-14T11:37:21;2.10;;;1.50;;
28958;SDS011;16066;0.000;0.000;2023-03-14T11:40:07;1.70;;;1.40;;
28958;SDS011;16066;0.000;0.000;2023-03-14T11:45:28;1.60;;;1.50;;
28958;SDS011;16066;0.000;0.000;2023-03-14T11:50:31;6.10;;;1.50;;
28958;SDS011;16066;0.000;0.000;2023-03-14T11:53:03;2.37;;;1.40;;
28958;SDS011;16066;0.000;0.000;2023-03-14T11:55:35;3.20;;;1.40;;
28958;SDS011;16066;0.000;0.000;2023-03-14T11:58:09;2.80;;;1.77;;
28958;SDS011;16066;0.000;0.000;2023-03-14T12:00:46;2.20;;;1.63;;
28958;SDS011;16066;0.000;0.000;2023-03-14T12:03:17;3.10;;;1.70;;
28958;SDS011;16066;0.000;0.000;2023-03-14T12:08:51;2.27;;;1.60;;
28958;SDS011;16066;0.000;0.000;2023-03-14T12:16:46;2.57;;;1.80;;
28958;SDS011;16066;0.000;0.000;2023-03-14T12:24:52;48.60;;;28.87;;
28958;SDS011;16066;0.000;0.000;2023-03-14T12:27:43;71.23;;;40.90;;
28958;SDS011;16066;0.000;0.000;2023-03-14T12:33:10;127.53;;;76.53;;
28958;SDS011;16066;0.000;0.000;2023-03-14T12:35:37;133.27;;;79.77;;
28958;SDS011;16066;0.000;0.000;2023-03-14T12:38:04;142.17;;;85.10;;
28958;SDS011;16066;0.000;0.000;2023-03-14T12:40:58;138.57;;;82.40;;
28958;SDS011;16066;0.000;0.000;2023-03-14T12:43:27;119.80;;;69.37;;
28958;SDS011;16066;0.000;0.000;2023-03-14T12:46:07;147.87;;;82.10;;
28958;SDS011;16066;0.000;0.000;2023-03-14T12:48:40;122.77;;;73.47;;
28958;SDS011;16066;0.000;0.000;2023-03-14T12:57:00;132.60;;;76.17;;
28958;SDS011;16066;0.000;0.000;2023-03-14T12:59:33;123.00;;;72.87;;
28958;SDS011;16066;0.000;0.000;2023-03-14T13:02:02;122.17;;;73.00;;
28958;SDS011;16066;0.000;0.000;2023-03-14T13:04:45;119.00;;;72.20;;
28958;SDS011;16066;0.000;0.000;2023-03-14T13:07:34;126.23;;;72.50;;
28958;SDS011;16066;0.000;0.000;2023-03-14T13:10:21;122.00;;;76.17;;
28958;SDS011;16066;0.000;0.000;2023-03-14T13:13:02;117.50;;;71.77;;
28958;SDS011;16066;0.000;0.000;2023-03-14T13:15:48;118.73;;;71.90;;
28958;SDS011;16066;0.000;0.000;2023-03-14T13:18:29;118.93;;;72.20;;
28958;SDS011;16066;0.000;0.000;2023-03-14T13:21:16;116.73;;;68.47;;
28958;SDS011;16066;0.000;0.000;2023-03-14T13:23:54;115.43;;;67.37;;
28958;SDS011;16066;0.000;0.000;2023-03-14T13:26:35;106.83;;;66.33;;
28958;SDS011;16066;0.000;0.000;2023-03-14T13:29:19;103.83;;;63.57;;
28958;SDS011;16066;0.000;0.000;2023-03-14T13:31:48;97.10;;;60.07;;
28958;SDS011;16066;0.000;0.000;2023-03-14T13:34:15;99.27;;;61.83;;
28958;SDS011;16066;0.000;0.000;2023-03-14T13:36:42;99.30;;;57.40;;
28958;SDS011;16066;0.000;0.000;2023-03-14T13:39:13;92.83;;;57.60;;
28958;SDS011;16066;0.000;0.000;2023-03-14T13:41:42;95.83;;;58.20;;
28958;SDS011;16066;0.000;0.000;2023-03-14T13:44:10;80.80;;;50.57;;
28958;SDS011;16066;0.000;0.000;2023-03-14T13:46:50;82.70;;;54.23;;
28958;SDS011;16066;0.000;0.000;2023-03-14T13:49:19;81.97;;;50.83;;
28958;SDS011;16066;0.000;0.000;2023-03-14T13:51:48;82.37;;;51.33;;
28958;SDS011;16066;0.000;0.000;2023-03-14T13:54:15;76.60;;;48.20;;
28958;SDS011;16066;0.000;0.000;2023-03-14T13:56:42;81.37;;;46.60;;
28958;SDS011;16066;0.000;0.000;2023-03-14T13:59:21;69.93;;;45.50;;
28958;SDS011;16066;0.000;0.000;2023-03-14T14:01:48;76.63;;;46.63;;
28958;SDS011;16066;0.000;0.000;2023-03-14T14:04:15;64.13;;;42.53;;
28958;SDS011;16066;0.000;0.000;2023-03-14T14:06:47;64.30;;;42.33;;
28958;SDS011;16066;0.000;0.000;2023-03-14T14:09:18;70.07;;;43.80;;
28958;SDS011;16066;0.000;0.000;2023-03-14T14:16:52;61.47;;;41.00;;
28958;SDS011;16066;0.000;0.000;2023-03-14T14:19:19;68.97;;;42.80;;
28958;SDS011;16066;0.000;0.000;2023-03-14T14:21:47;68.73;;;42.43;;
28958;SDS011;16066;0.000;0.000;2023-03-14T14:24:13;63.63;;;42.43;;
28958;SDS011;16066;0.000;0.000;2023-03-14T14:26:40;59.77;;;40.90;;
28958;SDS011;16066;0.000;0.000;2023-03-14T14:29:20;57.47;;;38.00;;
28958;SDS011;16066;0.000;0.000;2023-03-14T14:34:42;58.17;;;38.83;;
28958;SDS011;16066;0.000;0.000;2023-03-14T14:39:46;56.23;;;37.53;;
28958;SDS011;16066;0.000;0.000;2023-03-14T14:42:15;54.60;;;36.60;;
28958;SDS011;16066;0.000;0.000;2023-03-14T14:44:43;56.60;;;37.20;;
28958;SDS011;16066;0.000;0.000;2023-03-14T14:47:15;53.93;;;36.47;;
28958;SDS011;16066;0.000;0.000;2023-03-14T14:49:45;55.93;;;37.30;;
28958;SDS011;16066;0.000;0.000;2023-03-14T14:52:14;52.40;;;34.60;;
28958;SDS011;16066;0.000;0.000;2023-03-14T14:54:52;50.13;;;32.70;;
28958;SDS011;16066;0.000;0.000;2023-03-14T14:57:23;47.57;;;31.43;;
28958;SDS011;16066;0.000;0.000;2023-03-14T14:59:54;50.43;;;32.03;;
28958;SDS011;16066;0.000;0.000;2023-03-14T15:02:27;44.07;;;28.97;;
28958;SDS011;16066;0.000;0.000;2023-03-14T15:04:55;45.95;;;30.80;;
28958;SDS011;16066;0.000;0.000;2023-03-14T15:07:21;47.70;;;28.40;;
28958;SDS011;16066;0.000;0.000;2023-03-14T15:09:46;42.20;;;28.17;;
28958;SDS011;16066;0.000;0.000;2023-03-14T15:12:12;39.67;;;28.70;;
28958;SDS011;16066;0.000;0.000;2023-03-14T15:14:37;40.53;;;27.03;;
28958;SDS011;16066;0.000;0.000;2023-03-14T15:17:03;41.87;;;26.77;;
28958;SDS011;16066;0.000;0.000;2023-03-14T15:19:28;41.27;;;26.93;;
28958;SDS011;16066;0.000;0.000;2023-03-14T15:21:57;32.93;;;23.67;;
28958;SDS011;16066;0.000;0.000;2023-03-14T15:24:23;38.27;;;24.13;;
28958;SDS011;16066;0.000;0.000;2023-03-14T15:26:49;35.20;;;25.00;;
28958;SDS011;16066;0.000;0.000;2023-03-14T15:29:14;36.00;;;22.20;;
28958;SDS011;16066;0.000;0.000;2023-03-14T15:31:40;38.50;;;21.77;;
28958;SDS011;16066;0.000;0.000;2023-03-14T15:34:07;37.43;;;23.23;;
28958;SDS011;16066;0.000;0.000;2023-03-14T15:36:34;35.00;;;22.87;;
28958;SDS011;16066;0.000;0.000;2023-03-14T15:39:00;36.63;;;22.00;;
28958;SDS011;16066;0.000;0.000;2023-03-14T15:41:27;30.17;;;19.23;;
28958;SDS011;16066;0.000;0.000;2023-03-14T15:43:53;35.07;;;21.30;;
28958;SDS011;16066;0.000;0.000;2023-03-14T15:46:19;33.07;;;20.43;;
28958;SDS011;16066;0.000;0.000;2023-03-14T15:48:46;31.87;;;19.40;;
28958;SDS011;16066;0.000;0.000;2023-03-14T15:51:13;32.47;;;20.30;;
28958;SDS011;16066;0.000;0.000;2023-03-14T15:53:39;33.70;;;20.00;;
28958;SDS011;16066;0.000;0.000;2023-03-14T15:56:06;27.00;;;18.37;;
28958;SDS011;16066;0.000;0.000;2023-03-14T15:58:35;23.30;;;16.60;;
28958;SDS011;16066;0.000;0.000;2023-03-14T16:01:01;28.10;;;17.60;;
28958;SDS011;16066;0.000;0.000;2023-03-14T16:03:28;28.83;;;17.00;;
28958;SDS011;16066;0.000;0.000;2023-03-14T16:05:54;31.10;;;17.37;;
28958;SDS011;16066;0.000;0.000;2023-03-14T16:08:20;27.33;;;17.03;;